createdAt,value
2019-01-31T00:02:06.934Z,99411.39
2019-01-31T00:04:46.985Z,99415.70
2019-01-31T00:07:53.133Z,99415.70
2019-01-31T00:10:42.821Z,99417.83
2019-01-31T00:13:30.646Z,99420.00
2019-01-31T00:16:36.891Z,99416.55
2019-01-31T00:19:42.827Z,99422.16
2019-01-31T00:22:48.714Z,99425.16
2019-01-31T00:25:54.706Z,99414.41
2019-01-31T00:28:45.157Z,99419.98
2019-01-31T00:31:51.397Z,99421.27
2019-01-31T00:34:44.593Z,99417.39
2019-01-31T00:37:37.200Z,99413.95
2019-01-31T00:40:27.015Z,99415.26
2019-01-31T00:43:32.968Z,99416.11
2019-01-31T00:46:38.867Z,99414.83
2019-01-31T00:49:28.236Z,99414.83
2019-01-31T00:52:34.093Z,99420.00
2019-01-31T00:55:28.210Z,99427.30
2019-01-31T00:58:34.391Z,99422.13
2019-01-31T01:01:08.641Z,99420.84
2019-01-31T01:03:59.809Z,99421.27
2019-01-31T01:07:05.786Z,99428.62
2019-01-31T01:09:54.893Z,99429.46
2019-01-31T01:12:47.047Z,99435.91
2019-01-31T01:15:40.435Z,99440.20
2019-01-31T01:18:29.237Z,99431.59
2019-01-31T01:21:18.871Z,99437.19
2019-01-31T01:24:08.056Z,99438.93
2019-01-31T01:27:13.958Z,99446.24
2019-01-31T01:30:14.003Z,99444.50
2019-01-31T01:33:03.196Z,99445.39
2019-01-31T01:35:53.489Z,99435.49
2019-01-31T01:38:59.355Z,99442.34
2019-01-31T01:42:05.363Z,99437.20
2019-01-31T01:45:11.255Z,99445.39
2019-01-31T01:48:17.439Z,99444.50
2019-01-31T01:51:06.941Z,99447.52
2019-01-31T01:54:12.924Z,99429.46
2019-01-31T01:57:18.781Z,99435.48
2019-01-31T02:00:25.041Z,99447.11
2019-01-31T02:03:30.897Z,99439.34
2019-01-31T02:06:36.820Z,99434.63
2019-01-31T02:09:42.994Z,99436.77
2019-01-31T02:12:33.615Z,99439.36
2019-01-31T02:15:27.717Z,99441.09
2019-01-31T02:18:17.628Z,99444.10
2019-01-31T02:21:23.489Z,99441.95
2019-01-31T02:24:22.195Z,99438.08
2019-01-31T02:27:28.063Z,99431.63
2019-01-31T02:30:33.971Z,99429.89
2019-01-31T02:33:24.163Z,99435.92
2019-01-31T02:36:30.467Z,99426.88
2019-01-31T02:39:43.170Z,99436.34
2019-01-31T02:42:44.653Z,99429.88
2019-01-31T02:45:50.797Z,99438.06
2019-01-31T02:48:49.548Z,99442.38
2019-01-31T02:51:55.487Z,99433.75
2019-01-31T02:54:47.855Z,99429.45
2019-01-31T03:01:49.644Z,99423.88
2019-01-31T03:04:55.823Z,99432.03
2019-01-31T03:08:01.744Z,99435.48
2019-01-31T03:10:59.347Z,99437.20
2019-01-31T03:14:10.182Z,99430.33
2019-01-31T03:17:13.394Z,99437.20
2019-01-31T03:20:19.716Z,99438.08
2019-01-31T03:23:25.646Z,99445.81
2019-01-31T03:26:31.623Z,99440.64
2019-01-31T03:29:26.833Z,99442.36
2019-01-31T03:32:32.760Z,99438.92
2019-01-31T03:35:22.590Z,99444.95
2019-01-31T03:38:28.566Z,99451.38
2019-01-31T03:41:34.714Z,99449.25
2019-01-31T03:44:40.698Z,99449.25
2019-01-31T03:47:46.563Z,99451.42
2019-01-31T03:50:38.708Z,99441.94
2019-01-31T03:53:18.455Z,99441.07
2019-01-31T03:56:24.429Z,99445.80
2019-01-31T03:58:56.697Z,99451.83
2019-01-31T04:02:02.636Z,99447.96
2019-01-31T04:04:33.670Z,99447.96
2019-01-31T04:07:01.062Z,99449.23
2019-01-31T04:12:22.814Z,99442.80
2019-01-31T04:14:49.585Z,99453.16
2019-01-31T04:17:16.326Z,99445.41
2019-01-31T04:19:43.461Z,99457.00
2019-01-31T04:22:10.332Z,99459.17
2019-01-31T04:24:37.363Z,99455.28
2019-01-31T04:27:04.233Z,99452.73
2019-01-31T04:29:31.172Z,99450.13
2019-01-31T04:31:58.292Z,99447.55
2019-01-31T04:34:25.155Z,99452.70
2019-01-31T04:36:52.183Z,99450.55
2019-01-31T04:39:19.022Z,99454.42
2019-01-31T04:41:46.244Z,99455.28
2019-01-31T04:44:13.120Z,99454.88
2019-01-31T04:46:40.513Z,99458.30
2019-01-31T04:49:07.915Z,99457.88
2019-01-31T04:51:34.906Z,99463.04
2019-01-31T04:54:01.612Z,99458.30
2019-01-31T04:56:28.417Z,99460.02
2019-01-31T04:58:55.149Z,99466.91
2019-01-31T05:01:41.637Z,99466.48
2019-01-31T05:04:08.371Z,99466.48
2019-01-31T05:06:35.267Z,99469.05
2019-01-31T05:11:37.189Z,99470.35
2019-01-31T05:14:04.302Z,99478.98
2019-01-31T05:16:51.753Z,99479.38
2019-01-31T05:19:19.263Z,99479.38
2019-01-31T05:21:46.120Z,99482.85
2019-01-31T05:24:13.064Z,99482.41
2019-01-31T05:26:39.848Z,99485.86
2019-01-31T05:29:06.752Z,99483.27
2019-01-31T05:31:33.646Z,99483.27
2019-01-31T05:34:00.439Z,99487.14
2019-01-31T05:36:27.477Z,99482.41
2019-01-31T05:38:54.298Z,99494.03
2019-01-31T05:41:21.293Z,99494.03
2019-01-31T05:43:48.056Z,99491.45
2019-01-31T05:46:14.892Z,99491.45
2019-01-31T05:48:41.634Z,99497.48
2019-01-31T05:51:28.117Z,99503.91
2019-01-31T05:53:54.849Z,99503.91
2019-01-31T05:56:21.663Z,99505.65
2019-01-31T05:59:08.106Z,99505.21
2019-01-31T06:01:34.899Z,99505.21
2019-01-31T06:04:01.635Z,99511.70
2019-01-31T06:06:28.599Z,99513.41
2019-01-31T06:08:55.479Z,99509.11
2019-01-31T06:11:22.215Z,99510.83
2019-01-31T06:13:49.062Z,99515.12
2019-01-31T06:16:16.094Z,99517.27
2019-01-31T06:18:43.116Z,99509.96
2019-01-31T06:21:09.947Z,99520.28
2019-01-31T06:23:36.690Z,99518.99
2019-01-31T06:26:03.448Z,99512.95
2019-01-31T06:28:30.375Z,99521.55
2019-01-31T06:30:57.117Z,99515.54
2019-01-31T06:33:23.765Z,99517.25
2019-01-31T06:35:50.602Z,99519.80
2019-01-31T06:38:37.098Z,99520.20
2019-01-31T06:41:04.016Z,99535.33
2019-01-31T06:43:30.761Z,99535.33
2019-01-31T06:45:57.544Z,99530.58
2019-01-31T06:48:24.338Z,99530.58
2019-01-31T06:50:51.075Z,99540.88
2019-01-31T06:53:17.853Z,99540.85
2019-01-31T06:55:45.004Z,99547.70
2019-01-31T06:58:24.140Z,99541.28
2019-01-31T07:00:51.066Z,99541.28
2019-01-31T07:03:17.903Z,99546.02
2019-01-31T07:05:44.662Z,99552.91
2019-01-31T07:08:11.549Z,99551.59
2019-01-31T07:10:38.399Z,99545.58
2019-01-31T07:13:05.150Z,99556.77
2019-01-31T07:15:32.087Z,99552.51
2019-01-31T07:17:58.848Z,99552.51
2019-01-31T07:20:25.698Z,99555.08
2019-01-31T07:22:52.523Z,99560.28
2019-01-31T07:25:21.447Z,99560.28
2019-01-31T07:27:48.290Z,99557.31
2019-01-31T07:30:15.452Z,99548.30
2019-01-31T07:32:42.448Z,99549.58
2019-01-31T07:35:10.948Z,99549.98
2019-01-31T07:37:38.148Z,99549.98
2019-01-31T07:40:46.558Z,99546.56
2019-01-31T07:43:14.033Z,99556.45
2019-01-31T07:45:40.788Z,99560.78
2019-01-31T07:48:07.739Z,99557.75
2019-01-31T07:50:34.610Z,99559.48
2019-01-31T07:53:01.785Z,99556.90
2019-01-31T07:55:28.439Z,99554.34
2019-01-31T07:57:55.308Z,99554.34
2019-01-31T08:00:22.370Z,99562.94
2019-01-31T08:03:01.906Z,99566.37
2019-01-31T08:05:29.130Z,99567.25
2019-01-31T08:08:15.732Z,99565.09
2019-01-31T08:10:42.525Z,99565.09
2019-01-31T08:13:29.008Z,99571.16
2019-01-31T08:15:55.842Z,99580.60
2019-01-31T08:18:22.876Z,99565.98
2019-01-31T08:20:49.867Z,99575.45
2019-01-31T08:23:16.611Z,99576.33
2019-01-31T08:25:43.540Z,99578.03
2019-01-31T08:28:10.856Z,99575.91
2019-01-31T08:30:39.675Z,99575.91
2019-01-31T08:33:06.820Z,99569.42
2019-01-31T08:35:34.223Z,99579.78
2019-01-31T08:38:00.869Z,99595.70
2019-01-31T08:40:47.357Z,99590.10
2019-01-31T08:43:14.065Z,99590.10
2019-01-31T08:46:00.569Z,99591.40
2019-01-31T08:48:27.415Z,99591.40
2019-01-31T08:50:54.448Z,99593.53
2019-01-31T08:53:21.382Z,99600.88
2019-01-31T08:55:48.340Z,99596.55
2019-01-31T08:58:15.996Z,99599.59
2019-01-31T09:00:44.398Z,99598.31
2019-01-31T09:03:12.121Z,99606.03
2019-01-31T09:05:52.235Z,99606.45
2019-01-31T09:08:19.069Z,99602.58
2019-01-31T09:10:47.644Z,99604.67
2019-01-31T09:13:15.193Z,99613.21
2019-01-31T09:15:43.484Z,99612.45
2019-01-31T09:18:10.521Z,99615.43
2019-01-31T09:21:16.844Z,99608.06
2019-01-31T09:24:23.145Z,99608.06
2019-01-31T09:27:29.294Z,99610.59
2019-01-31T09:30:23.379Z,99610.94
2019-01-31T09:33:29.376Z,99613.53
2019-01-31T09:36:35.523Z,99613.96
2019-01-31T09:39:41.469Z,99620.83
2019-01-31T09:42:12.598Z,99619.05
2019-01-31T09:45:18.547Z,99618.78
2019-01-31T09:48:24.392Z,99620.06
2019-01-31T09:51:30.395Z,99614.80
2019-01-31T09:54:10.445Z,99622.44
2019-01-31T09:57:01.591Z,99618.28
2019-01-31T10:00:07.485Z,99618.19
2019-01-31T10:03:13.496Z,99616.08
2019-01-31T10:06:19.362Z,99621.25
2019-01-31T10:09:25.407Z,99626.91
2019-01-31T10:12:37.883Z,99613.91
2019-01-31T10:15:39.217Z,99614.63
2019-01-31T10:18:32.926Z,99612.16
2019-01-31T10:21:26.487Z,99616.77
2019-01-31T10:24:32.380Z,99609.71
2019-01-31T10:27:38.326Z,99613.73
2019-01-31T10:30:44.190Z,99606.80
2019-01-31T10:33:34.997Z,99598.23
2019-01-31T10:36:24.186Z,99595.13
2019-01-31T10:39:30.172Z,99596.98
2019-01-31T10:42:20.949Z,99594.44
2019-01-31T10:45:26.934Z,99587.05
2019-01-31T10:48:32.795Z,99595.58
2019-01-31T10:51:38.724Z,99599.29
2019-01-31T10:54:44.583Z,99594.95
2019-01-31T10:57:41.062Z,99594.25
2019-01-31T11:00:47.207Z,99595.50
2019-01-31T11:03:41.402Z,99592.39
2019-01-31T11:06:47.414Z,99593.89
2019-01-31T11:09:53.741Z,99590.50
2019-01-31T11:13:00.984Z,99586.45
2019-01-31T11:16:06.946Z,99594.75
2019-01-31T11:19:05.337Z,99585.15
2019-01-31T11:21:59.608Z,99588.27
2019-01-31T11:25:05.789Z,99585.91
2019-01-31T11:28:11.760Z,99583.26
2019-01-31T11:31:17.769Z,99587.81
2019-01-31T11:34:32.610Z,99587.84
2019-01-31T11:37:31.509Z,99580.67
2019-01-31T11:40:37.445Z,99582.09
2019-01-31T11:43:43.366Z,99581.05
2019-01-31T11:52:51.751Z,99576.53
2019-01-31T11:55:57.617Z,99580.28
2019-01-31T11:58:48.354Z,99591.91
2019-01-31T12:01:15.077Z,99585.20
2019-01-31T12:03:42.235Z,99581.53
2019-01-31T12:06:09.044Z,99582.10
2019-01-31T12:08:36.027Z,99582.37
2019-01-31T12:11:02.917Z,99580.84
2019-01-31T12:13:29.767Z,99580.30
2019-01-31T12:15:56.511Z,99580.55
2019-01-31T12:18:23.251Z,99568.53
2019-01-31T12:20:50.053Z,99581.91
2019-01-31T12:23:16.843Z,99583.25
2019-01-31T12:25:43.588Z,99577.56
2019-01-31T12:28:10.523Z,99577.14
2019-01-31T12:30:37.259Z,99571.88
2019-01-31T12:33:04.086Z,99577.84
2019-01-31T12:35:30.948Z,99567.20
2019-01-31T12:37:57.693Z,99566.13
2019-01-31T12:40:24.529Z,99561.73
2019-01-31T12:42:51.452Z,99562.86
2019-01-31T12:45:18.888Z,99563.34
2019-01-31T12:47:45.617Z,99565.69
2019-01-31T12:50:15.851Z,99563.08
2019-01-31T12:52:43.002Z,99559.69
2019-01-31T12:55:09.845Z,99568.00
2019-01-31T12:57:37.041Z,99562.73
2019-01-31T13:00:45.806Z,99566.37
2019-01-31T13:03:13.918Z,99562.32
2019-01-31T13:05:41.033Z,99560.75
2019-01-31T13:08:07.773Z,99554.78
2019-01-31T13:10:35.016Z,99560.91
2019-01-31T13:13:14.882Z,99561.34
2019-01-31T13:15:41.792Z,99555.17
2019-01-31T13:18:08.722Z,99554.64
2019-01-31T13:20:35.460Z,99554.15
2019-01-31T13:23:02.345Z,99557.63
2019-01-31T13:25:29.293Z,99556.68
2019-01-31T13:27:57.565Z,99548.59
2019-01-31T13:30:24.764Z,99554.00
2019-01-31T13:32:52.740Z,99551.13
2019-01-31T13:35:19.477Z,99547.80
2019-01-31T13:37:46.376Z,99548.20
2019-01-31T13:40:15.512Z,99553.40
2019-01-31T13:42:42.517Z,99554.59
2019-01-31T13:45:10.423Z,99555.89
2019-01-31T13:47:37.207Z,99553.27
2019-01-31T13:50:05.305Z,99557.91
2019-01-31T13:52:32.385Z,99550.94
2019-01-31T13:54:59.448Z,99562.80
2019-01-31T13:57:26.288Z,99557.09
2019-01-31T13:59:54.241Z,99559.14
2019-01-31T14:02:21.068Z,99562.73
2019-01-31T14:04:49.445Z,99560.81
2019-01-31T14:07:16.285Z,99567.07
2019-01-31T14:09:43.180Z,99563.10
2019-01-31T14:12:09.921Z,99569.82
2019-01-31T14:14:36.781Z,99570.02
2019-01-31T14:17:03.613Z,99576.50
2019-01-31T14:19:30.471Z,99572.63
2019-01-31T14:21:57.476Z,99570.40
2019-01-31T14:24:24.703Z,99572.22
2019-01-31T14:26:51.899Z,99574.16
2019-01-31T14:29:18.950Z,99578.98
2019-01-31T14:31:45.680Z,99576.34
2019-01-31T14:34:12.417Z,99576.47
2019-01-31T14:39:33.547Z,99581.27
2019-01-31T14:42:00.595Z,99585.03
2019-01-31T14:44:27.322Z,99589.03
2019-01-31T14:46:54.245Z,99588.94
2019-01-31T14:49:20.972Z,99583.25
2019-01-31T14:51:47.741Z,99581.46
2019-01-31T14:54:14.835Z,99579.66
2019-01-31T14:56:41.661Z,99579.67
2019-01-31T14:59:11.286Z,99579.59
2019-01-31T15:01:38.159Z,99579.52
2019-01-31T15:04:06.002Z,99581.55
2019-01-31T15:06:54.837Z,99575.70
2019-01-31T15:09:21.846Z,99576.61
2019-01-31T15:11:48.772Z,99578.89
2019-01-31T15:14:15.954Z,99581.14
2019-01-31T15:23:08.079Z,99585.31
2019-01-31T15:25:34.819Z,99582.03
2019-01-31T15:28:02.196Z,99587.69
2019-01-31T15:30:31.415Z,99586.53
2019-01-31T15:32:58.848Z,99578.45
2019-01-31T15:35:26.743Z,99577.74
2019-01-31T15:37:55.260Z,99578.19
2019-01-31T15:41:04.792Z,99579.64
2019-01-31T15:43:31.955Z,99576.63
2019-01-31T15:45:59.210Z,99581.52
2019-01-31T15:48:25.941Z,99585.53
2019-01-31T15:50:52.864Z,99581.23
2019-01-31T15:53:22.103Z,99581.94
2019-01-31T15:58:45.796Z,99588.63
2019-01-31T16:01:12.995Z,99587.46
2019-01-31T16:03:40.099Z,99583.25
2019-01-31T16:06:07.285Z,99585.89
2019-01-31T16:08:34.147Z,99588.95
2019-01-31T16:11:00.882Z,99588.09
2019-01-31T16:13:47.352Z,99587.66
2019-01-31T16:16:14.073Z,99588.99
2019-01-31T16:18:43.825Z,99587.34
2019-01-31T16:21:11.346Z,99588.70
2019-01-31T16:23:38.083Z,99586.59
2019-01-31T16:26:04.822Z,99583.19
2019-01-31T16:28:31.658Z,99583.20
2019-01-31T16:30:58.501Z,99583.22
2019-01-31T16:33:25.374Z,99584.94
2019-01-31T16:35:53.846Z,99570.71
2019-01-31T16:38:23.995Z,99587.97
2019-01-31T16:40:50.378Z,99578.48
2019-01-31T16:43:17.375Z,99574.60
2019-01-31T16:46:03.751Z,99575.45
2019-01-31T16:48:33.048Z,99575.86
2019-01-31T17:02:52.132Z,99583.17
2019-01-31T17:05:21.005Z,99584.86
2019-01-31T17:07:47.876Z,99588.31
2019-01-31T17:10:15.237Z,99587.85
2019-01-31T17:12:42.340Z,99587.43
2019-01-31T17:15:17.564Z,99598.16
2019-01-31T17:17:38.390Z,99596.00
2019-01-31T17:20:08.828Z,99588.66
2019-01-31T17:22:36.017Z,99589.98
2019-01-31T17:28:16.823Z,99592.55
2019-01-31T17:30:43.733Z,99587.44
2019-01-31T17:33:10.616Z,99582.69
2019-01-31T17:35:37.610Z,99587.00
2019-01-31T17:38:04.606Z,99594.73
2019-01-31T17:40:33.813Z,99593.03
2019-01-31T17:43:01.000Z,99594.77
2019-01-31T17:45:30.573Z,99596.05
2019-01-31T17:47:56.801Z,99593.49
2019-01-31T17:50:24.496Z,99596.91
2019-01-31T17:52:51.930Z,99589.59
2019-01-31T17:55:19.751Z,99585.30
2019-01-31T17:57:47.278Z,99587.48
2019-01-31T18:00:53.721Z,99587.91
2019-01-31T18:03:21.309Z,99587.91
2019-01-31T18:05:48.710Z,99594.79
2019-01-31T18:08:36.211Z,99594.31
2019-01-31T18:11:03.240Z,99594.31
2019-01-31T18:13:30.141Z,99590.45
2019-01-31T18:15:57.189Z,99593.45
2019-01-31T18:18:24.059Z,99592.60
2019-01-31T18:21:03.583Z,99590.46
2019-01-31T18:23:43.919Z,99590.46
2019-01-31T18:26:11.382Z,99590.47
2019-01-31T18:28:38.297Z,99587.89
2019-01-31T18:31:05.321Z,99589.63
2019-01-31T18:33:32.372Z,99575.42
2019-01-31T18:35:59.266Z,99575.42
2019-01-31T18:38:26.312Z,99579.72
2019-01-31T18:40:53.607Z,99579.28
2019-01-31T18:43:21.413Z,99577.11
2019-01-31T18:45:53.357Z,99576.71
2019-01-31T18:48:37.365Z,99571.52
2019-01-31T18:51:04.397Z,99563.31
2019-01-31T18:53:31.209Z,99563.31
2019-01-31T18:56:17.770Z,99570.59
2019-01-31T18:59:04.212Z,99580.42
2019-01-31T19:01:31.255Z,99580.42
2019-01-31T19:03:58.170Z,99570.49
2019-01-31T19:06:25.957Z,99572.63
2019-01-31T19:08:53.120Z,99565.72
2019-01-31T19:11:19.907Z,99570.44
2019-01-31T19:13:46.813Z,99564.81
2019-01-31T19:16:13.669Z,99560.97
2019-01-31T19:18:40.713Z,99562.75
2019-01-31T19:21:07.750Z,99562.75
2019-01-31T19:23:34.849Z,99569.23
2019-01-31T19:26:01.845Z,99565.78
2019-01-31T19:28:48.526Z,99559.36
2019-01-31T19:31:15.425Z,99559.36
2019-01-31T19:33:42.460Z,99561.55
2019-01-31T19:36:09.798Z,99561.15
2019-01-31T19:38:36.703Z,99563.27
2019-01-31T19:41:03.823Z,99563.27
2019-01-31T19:46:15.775Z,99561.47
2019-01-31T19:48:34.285Z,99559.75
2019-01-31T19:51:01.557Z,99559.24
2019-01-31T19:53:30.960Z,99558.84
2019-01-31T19:55:57.755Z,99546.81
2019-01-31T19:58:27.014Z,99546.81
2019-01-31T20:00:54.430Z,99554.58
2019-01-31T20:03:21.940Z,99550.31
2019-01-31T20:05:48.990Z,99555.46
2019-01-31T20:08:15.737Z,99555.46
2019-01-31T20:10:42.952Z,99550.34
2019-01-31T20:13:09.710Z,99551.14
2019-01-31T20:15:38.144Z,99552.45
2019-01-31T20:18:05.306Z,99545.98
2019-01-31T20:20:32.201Z,99548.56
2019-01-31T20:23:18.660Z,99546.41
2019-01-31T20:25:45.591Z,99547.69
2019-01-31T20:28:25.052Z,99547.69
2019-01-31T20:30:52.103Z,99548.12
2019-01-31T20:33:19.000Z,99546.83
2019-01-31T20:35:45.890Z,99545.99
2019-01-31T20:38:12.681Z,99536.13
2019-01-31T20:40:41.243Z,99539.58
2019-01-31T20:43:08.367Z,99537.38
2019-01-31T20:45:35.498Z,99540.88
2019-01-31T20:48:02.426Z,99541.30
2019-01-31T20:50:31.320Z,99541.31
2019-01-31T20:52:58.200Z,99540.44
2019-01-31T20:55:25.236Z,99543.90
2019-01-31T20:57:52.395Z,99543.48
2019-01-31T21:00:43.139Z,99541.30
2019-01-31T21:03:10.684Z,99545.62
2019-01-31T21:05:37.641Z,99543.87
2019-01-31T21:08:46.069Z,99539.16
2019-01-31T21:11:12.908Z,99538.70
2019-01-31T21:13:40.577Z,99539.98
2019-01-31T21:16:07.623Z,99543.48
2019-01-31T21:18:34.609Z,99547.34
2019-01-31T21:21:01.983Z,99548.63
2019-01-31T21:23:29.187Z,99541.75
2019-01-31T21:25:56.074Z,99534.39
2019-01-31T21:28:22.823Z,99540.85
2019-01-31T21:30:49.738Z,99546.02
2019-01-31T21:33:17.153Z,99546.41
2019-01-31T21:35:44.413Z,99536.54
2019-01-31T21:38:11.849Z,99549.42
2019-01-31T21:40:39.029Z,99551.14
2019-01-31T21:43:25.362Z,99546.80
2019-01-31T21:45:52.110Z,99545.53
2019-01-31T21:48:18.865Z,99546.75
2019-01-31T21:50:45.695Z,99550.17
2019-01-31T21:53:13.520Z,99546.30
2019-01-31T21:55:41.882Z,99551.51
2019-01-31T21:58:09.194Z,99541.14
2019-01-31T22:00:55.457Z,99546.69
2019-01-31T22:03:22.462Z,99538.95
2019-01-31T22:05:49.592Z,99537.64
2019-01-31T22:08:16.878Z,99532.91
2019-01-31T22:10:43.859Z,99525.17
2019-01-31T22:13:10.511Z,99525.16
2019-01-31T22:15:37.382Z,99520.83
2019-01-31T22:18:05.328Z,99515.20
2019-01-31T22:20:32.170Z,99519.09
2019-01-31T22:22:58.941Z,99514.38
2019-01-31T22:25:26.136Z,99513.53
2019-01-31T22:28:12.840Z,99519.49
2019-01-31T22:30:39.817Z,99517.73
2019-01-31T22:33:07.766Z,99516.47
2019-01-31T22:35:34.612Z,99509.18
2019-01-31T22:38:01.518Z,99509.98
2019-01-31T22:40:28.271Z,99509.98
2019-01-31T22:42:55.014Z,99509.55
2019-01-31T22:45:41.532Z,99506.95
2019-01-31T22:48:08.676Z,99507.40
2019-01-31T22:50:35.658Z,99509.52
2019-01-31T22:53:22.500Z,99513.44
2019-01-31T22:55:49.361Z,99506.51
2019-01-31T22:58:16.219Z,99501.75
2019-01-31T23:01:42.111Z,99504.77
2019-01-31T23:04:08.856Z,99502.16
2019-01-31T23:06:35.608Z,99497.50
2019-01-31T23:11:57.548Z,99495.33
2019-01-31T23:14:24.562Z,99487.98
2019-01-31T23:16:51.498Z,99492.30
2019-01-31T23:19:18.482Z,99487.16
2019-01-31T23:21:45.320Z,99482.83
2019-01-31T23:24:12.179Z,99484.57
2019-01-31T23:26:39.072Z,99481.11
2019-01-31T23:29:05.942Z,99486.70
2019-01-31T23:34:29.650Z,99479.34
2019-01-31T23:36:56.303Z,99473.75
2019-01-31T23:39:23.045Z,99476.71
2019-01-31T23:41:50.191Z,99472.00
2019-01-31T23:44:17.276Z,99468.57
2019-01-31T23:46:44.023Z,99470.70
2019-01-31T23:49:11.202Z,99469.86
2019-01-31T23:51:37.955Z,99465.09
2019-01-31T23:56:59.435Z,99468.11
2019-01-31T23:59:26.392Z,99458.70
